Hartford, Connecticut
Current Conditions -  °F | °C
As of 9:53 PM on Monday 26 Jan 2015 (Local Time) from KHFD Reporting Station
Light Snow Light Snow  
Wind Chill:   Ceiling: 1400
Heat Index: 21°   Visibility: 0.75mi
Dew Point: 17°   Wind: 14mph
Humidity: 85%   Direction: 360°N
Pressure: 29.85"   Gusts: 22mph
Location:  41.76°N, 72.67°W
Report Text: KHFD 270253Z 36012G19KT 3/4SM -SN BR VV014 M06/M08 A2985 RMK AO2 SLP108 P0000 60001 T10611083 58040
Loading
Personal Weather Stations






























Interactive Weather Map New forecast layout! Learn more

10-Day Weather Forecast

Advertisements
Track Severe Weather on mobile